Time;durP1;ratioP1;P1;durP2;ratioP2;P2;SDS_P1;SDS_P2;PMS_P1;PMS_P2;Temp;Humidity;BMP_temperature;BMP_pressure;BME280_temperature;BME280_humidity;BME280_pressure;Samples;Min_cycle;Max_cycle;Signal;HPM_P1;HPM_P2
2023/11/12 00:01:40;;;;;;;2.53;1.55;;;11.20;99.90;;;;;;5035703;28;20030;-42
2023/11/12 00:04:06;;;;;;;2.70;1.50;;;11.20;99.90;;;;;;5036265;28;20021;-41
2023/11/12 00:06:31;;;;;;;2.13;1.20;;;11.20;99.90;;;;;;5034885;28;20036;-45
2023/11/12 00:08:57;;;;;;;1.98;1.30;;;11.20;99.90;;;;;;5035710;28;20041;-42
2023/11/12 00:11:23;;;;;;;3.08;1.40;;;11.20;99.90;;;;;;5036104;28;20025;-41
2023/11/12 00:13:49;;;;;;;2.60;1.52;;;11.20;99.90;;;;;;5034389;28;20032;-41
2023/11/12 00:16:15;;;;;;;2.75;1.60;;;11.20;99.90;;;;;;5035991;28;20036;-42
2023/11/12 00:18:40;;;;;;;2.67;1.35;;;11.20;99.90;;;;;;5035936;28;20056;-44
2023/11/12 00:21:06;;;;;;;2.40;1.55;;;11.20;99.90;;;;;;5035355;28;20048;-41
2023/11/12 00:23:36;;;;;;;2.95;1.42;;;11.20;99.90;;;;;;5034968;28;20495;-41
2023/11/12 00:26:01;;;;;;;2.72;1.50;;;11.20;99.90;;;;;;5035353;28;20032;-42
2023/11/12 00:28:27;;;;;;;2.08;1.23;;;11.20;99.90;;;;;;5034313;28;20026;-41
2023/11/12 00:30:53;;;;;;;2.33;1.30;;;11.20;99.90;;;;;;5034787;28;20027;-41
2023/11/12 00:33:19;;;;;;;2.92;1.25;;;11.20;99.90;;;;;;5035492;28;20049;-41
2023/11/12 00:35:45;;;;;;;2.30;1.63;;;11.10;99.90;;;;;;5033967;28;20486;-41
2023/11/12 00:38:10;;;;;;;2.35;1.30;;;11.20;99.90;;;;;;5034413;28;20104;-42
2023/11/12 00:40:36;;;;;;;1.98;1.50;;;11.10;99.90;;;;;;5034875;28;20021;-41
2023/11/12 00:43:02;;;;;;;2.00;1.35;;;11.10;99.90;;;;;;5034449;28;20025;-41
2023/11/12 00:45:29;;;;;;;2.67;1.58;;;11.20;99.90;;;;;;5034453;28;20498;-42
2023/11/12 00:47:57;;;;;;;2.25;1.60;;;11.20;99.90;;;;;;5034190;28;20096;-41
2023/11/12 00:50:23;;;;;;;1.88;1.17;;;11.10;99.90;;;;;;5034547;28;20025;-41
2023/11/12 00:52:48;;;;;;;2.58;1.42;;;11.20;99.90;;;;;;5034210;28;20036;-43
2023/11/12 00:55:14;;;;;;;1.90;1.35;;;11.10;99.90;;;;;;5034448;28;20022;-42
2023/11/12 00:57:39;;;;;;;2.50;1.40;;;11.10;99.90;;;;;;5034588;28;20387;-41
2023/11/12 01:00:07;;;;;;;1.92;1.20;;;11.10;99.90;;;;;;5033472;28;20103;-42
2023/11/12 01:02:33;;;;;;;1.77;1.40;;;11.10;99.90;;;;;;5033707;28;20022;-41
2023/11/12 01:04:59;;;;;;;2.53;1.50;;;11.10;99.90;;;;;;5034065;28;20033;-44
2023/11/12 01:07:24;;;;;;;2.60;1.50;;;11.10;99.90;;;;;;5032407;28;20032;-43
2023/11/12 01:09:50;;;;;;;3.22;1.50;;;11.10;99.90;;;;;;5035573;28;20449;-41
2023/11/12 01:12:19;;;;;;;2.35;1.33;;;11.10;99.90;;;;;;5034191;28;20534;-41
2023/11/12 01:14:45;;;;;;;2.72;1.45;;;11.10;99.90;;;;;;5034471;28;20017;-42
2023/11/12 01:17:11;;;;;;;1.80;1.23;;;11.10;99.90;;;;;;5033672;28;20402;-42
2023/11/12 01:19:37;;;;;;;1.88;1.48;;;11.10;99.90;;;;;;5033021;28;20029;-41
2023/11/12 01:22:03;;;;;;;3.05;1.15;;;11.10;99.90;;;;;;5033477;28;20438;-41
2023/11/12 01:24:29;;;;;;;1.88;1.30;;;11.10;99.90;;;;;;5033100;28;20026;-41
2023/11/12 01:26:54;;;;;;;2.65;1.40;;;11.10;99.90;;;;;;5033285;28;20050;-44
2023/11/12 01:29:20;;;;;;;1.88;1.25;;;11.10;99.90;;;;;;5033566;28;20029;-41
2023/11/12 01:31:46;;;;;;;2.05;1.10;;;11.10;99.90;;;;;;5034041;28;20030;-42
2023/11/12 01:34:14;;;;;;;1.88;1.10;;;11.10;99.90;;;;;;5034278;28;20018;-41
2023/11/12 01:36:39;;;;;;;2.05;1.30;;;11.10;99.90;;;;;;5033320;28;20017;-42
2023/11/12 01:39:08;;;;;;;1.35;1.00;;;11.00;99.90;;;;;;5033343;28;20040;-41
2023/11/12 01:41:34;;;;;;;2.13;1.23;;;11.10;99.90;;;;;;5033340;28;20029;-41
2023/11/12 01:43:59;;;;;;;2.00;1.20;;;11.10;99.90;;;;;;5033278;28;20041;-42
2023/11/12 01:46:26;;;;;;;2.55;1.17;;;11.10;99.90;;;;;;5033790;28;20096;-41
2023/11/12 01:48:54;;;;;;;2.40;1.30;;;11.10;99.90;;;;;;5032925;28;20441;-41
2023/11/12 01:51:21;;;;;;;1.65;1.00;;;11.10;99.90;;;;;;5032941;28;20032;-41
2023/11/12 01:53:48;;;;;;;2.88;1.35;;;11.10;99.90;;;;;;5033474;28;20467;-42
2023/11/12 01:56:15;;;;;;;2.67;1.10;;;11.10;99.90;;;;;;5033986;28;20029;-41
2023/11/12 01:58:43;;;;;;;1.50;1.10;;;11.10;99.90;;;;;;5033013;28;20421;-42
2023/11/12 02:01:10;;;;;;;2.28;1.20;;;11.10;99.90;;;;;;5072703;22;20084;-38
2023/11/12 02:03:37;;;;;;;1.58;1.20;;;11.10;99.90;;;;;;5032058;28;20105;-38
2023/11/12 02:06:03;;;;;;;2.35;1.00;;;11.00;99.90;;;;;;5032244;28;20398;-36
2023/11/12 02:08:30;;;;;;;3.53;1.20;;;11.10;99.90;;;;;;5032242;28;20025;-37
2023/11/12 02:10:57;;;;;;;1.80;1.15;;;11.00;99.90;;;;;;5032088;28;20029;-38
2023/11/12 02:13:22;;;;;;;1.50;1.00;;;11.00;99.90;;;;;;5032278;28;20022;-38
2023/11/12 02:15:50;;;;;;;1.70;1.20;;;11.00;99.90;;;;;;5031846;28;20029;-37
2023/11/12 02:18:16;;;;;;;1.92;1.10;;;11.00;99.90;;;;;;5032699;28;20100;-38
2023/11/12 02:20:46;;;;;;;1.90;1.00;;;11.10;99.90;;;;;;5032293;28;20018;-38
2023/11/12 02:23:14;;;;;;;2.17;1.17;;;11.10;99.90;;;;;;5032307;28;20490;-37
2023/11/12 02:25:44;;;;;;;1.38;1.00;;;11.10;99.90;;;;;;5032126;28;20478;-37
2023/11/12 02:28:11;;;;;;;1.67;1.10;;;11.00;99.90;;;;;;5032052;28;20021;-37
2023/11/12 02:30:41;;;;;;;2.78;1.27;;;11.10;99.90;;;;;;5031700;28;20021;-38
2023/11/12 02:33:07;;;;;;;2.10;1.30;;;11.00;99.90;;;;;;5030627;28;20047;-38
2023/11/12 02:35:36;;;;;;;1.98;1.33;;;11.00;99.90;;;;;;5031749;28;20021;-37
2023/11/12 02:38:02;;;;;;;1.67;0.98;;;11.00;99.90;;;;;;5031767;28;20028;-37
2023/11/12 02:40:27;;;;;;;1.20;0.85;;;11.00;99.90;;;;;;5031688;28;20477;-37
2023/11/12 02:42:53;;;;;;;1.88;1.10;;;11.00;99.90;;;;;;5031660;28;20028;-38
2023/11/12 02:45:18;;;;;;;2.25;1.35;;;11.00;99.90;;;;;;5031613;28;20074;-38
2023/11/12 02:47:44;;;;;;;1.90;1.10;;;11.00;99.90;;;;;;5031741;28;20467;-37
2023/11/12 02:50:30;;;;;;;1.60;1.10;;;11.00;99.90;;;;;;5031542;28;20060;-38
2023/11/12 02:53:00;;;;;;;1.95;1.17;;;11.00;99.90;;;;;;5031612;28;20387;-36
2023/11/12 02:55:30;;;;;;;1.85;1.00;;;11.00;99.90;;;;;;5031290;28;20064;-38
2023/11/12 02:57:56;;;;;;;2.22;1.30;;;11.00;99.90;;;;;;5031470;28;20437;-38
2023/11/12 03:00:25;;;;;;;3.22;1.48;;;11.00;99.90;;;;;;5031309;28;20037;-37
2023/11/12 03:02:57;;;;;;;2.28;1.30;;;11.00;99.90;;;;;;5031506;28;20819;-38
2023/11/12 03:05:24;;;;;;;1.52;1.10;;;11.00;99.90;;;;;;5031398;28;20108;-37
2023/11/12 03:07:50;;;;;;;2.35;1.15;;;11.00;99.90;;;;;;5031313;28;20022;-37
2023/11/12 03:10:16;;;;;;;2.47;1.10;;;11.00;99.90;;;;;;5030415;28;20030;-38
2023/11/12 03:12:42;;;;;;;1.77;1.25;;;10.90;99.90;;;;;;5031274;28;20025;-37
2023/11/12 03:15:09;;;;;;;2.78;1.10;;;11.00;99.90;;;;;;5031231;28;20076;-39
2023/11/12 03:17:36;;;;;;;2.47;1.23;;;11.00;99.90;;;;;;5031291;28;20386;-38
2023/11/12 03:20:09;;;;;;;1.48;1.00;;;10.90;99.90;;;;;;5031154;28;20541;-39
2023/11/12 03:22:35;;;;;;;2.40;1.20;;;10.90;99.90;;;;;;5031155;28;20036;-38
2023/11/12 03:25:02;;;;;;;1.60;1.10;;;11.00;99.90;;;;;;5031168;28;20160;-38
2023/11/12 03:27:29;;;;;;;1.70;1.20;;;10.90;99.90;;;;;;5031105;28;20037;-38
2023/11/12 03:29:55;;;;;;;3.15;1.52;;;10.90;99.90;;;;;;5035102;28;20394;-39
2023/11/12 03:32:23;;;;;;;2.10;1.35;;;10.90;99.90;;;;;;5035147;28;20029;-38
2023/11/12 03:34:50;;;;;;;2.70;1.10;;;10.90;99.90;;;;;;5035136;28;20025;-37
2023/11/12 03:37:19;;;;;;;1.75;1.20;;;10.90;99.90;;;;;;5034871;28;20482;-37
2023/11/12 03:39:46;;;;;;;1.40;1.17;;;10.90;99.90;;;;;;5034993;28;20398;-39
2023/11/12 03:42:11;;;;;;;2.45;1.33;;;10.90;99.90;;;;;;5035035;28;20022;-39
2023/11/12 03:44:38;;;;;;;2.13;1.10;;;10.80;99.90;;;;;;5034949;28;20376;-38
2023/11/12 03:47:04;;;;;;;1.27;1.00;;;10.80;99.90;;;;;;5033478;28;20482;-38
2023/11/12 03:49:30;;;;;;;1.15;0.90;;;10.80;99.90;;;;;;5034846;28;20485;-39
2023/11/12 03:51:55;;;;;;;2.25;1.10;;;10.80;99.90;;;;;;5034970;28;20185;-38
2023/11/12 03:54:21;;;;;;;1.40;0.90;;;10.80;99.90;;;;;;5034914;28;20029;-38
2023/11/12 03:56:47;;;;;;;1.67;1.20;;;10.80;99.90;;;;;;5034642;28;20055;-38
2023/11/12 03:59:12;;;;;;;2.13;1.00;;;10.80;99.90;;;;;;5034549;28;20025;-37
2023/11/12 04:01:38;;;;;;;1.55;1.02;;;10.80;99.90;;;;;;5034765;28;20029;-38
2023/11/12 04:04:04;;;;;;;1.27;1.10;;;10.90;99.90;;;;;;5034616;28;20052;-38
2023/11/12 04:06:31;;;;;;;1.55;1.00;;;10.90;99.90;;;;;;5034412;28;20031;-37
2023/11/12 04:08:57;;;;;;;2.50;1.17;;;10.80;99.90;;;;;;5034500;28;20029;-38
2023/11/12 04:11:22;;;;;;;1.38;0.90;;;10.80;99.90;;;;;;5034435;28;20037;-37
2023/11/12 04:13:48;;;;;;;3.05;1.15;;;10.80;99.90;;;;;;5034503;28;20049;-39
2023/11/12 04:16:14;;;;;;;3.13;1.50;;;10.90;99.90;;;;;;5034370;28;20053;-38
2023/11/12 04:18:39;;;;;;;1.88;1.15;;;10.90;99.90;;;;;;5034254;28;20509;-37
2023/11/12 04:21:05;;;;;;;2.90;1.35;;;10.90;99.90;;;;;;5034205;28;20470;-38
2023/11/12 04:23:31;;;;;;;2.08;1.02;;;10.90;99.90;;;;;;5034295;28;20032;-39
2023/11/12 04:25:57;;;;;;;1.52;1.00;;;10.90;99.90;;;;;;5034150;28;20100;-37
2023/11/12 04:28:26;;;;;;;1.42;1.00;;;10.80;99.90;;;;;;5034157;28;20531;-38
2023/11/12 04:30:53;;;;;;;1.10;0.77;;;10.80;99.90;;;;;;5034407;28;20028;-39
2023/11/12 04:33:19;;;;;;;3.33;1.05;;;10.80;99.90;;;;;;5034496;28;20029;-38
2023/11/12 04:35:47;;;;;;;1.83;1.10;;;10.80;99.90;;;;;;5034165;28;20025;-38
2023/11/12 04:38:12;;;;;;;1.30;0.93;;;10.80;99.90;;;;;;5033901;28;20026;-38
2023/11/12 04:40:39;;;;;;;2.53;0.95;;;10.80;99.90;;;;;;5033489;28;20083;-38
2023/11/12 04:43:05;;;;;;;1.20;0.80;;;10.80;99.90;;;;;;5033970;28;20320;-38
2023/11/12 04:45:31;;;;;;;2.00;1.23;;;10.80;99.90;;;;;;5033884;28;20036;-38
2023/11/12 04:47:56;;;;;;;1.38;0.80;;;10.80;99.90;;;;;;5033634;28;20462;-38
2023/11/12 04:50:22;;;;;;;2.15;1.15;;;10.80;99.90;;;;;;5033695;28;20482;-37
2023/11/12 04:52:48;;;;;;;1.67;1.10;;;10.80;99.90;;;;;;5033602;28;20029;-38
2023/11/12 04:55:13;;;;;;;2.83;1.20;;;10.80;99.90;;;;;;5033754;28;20482;-37
2023/11/12 04:57:39;;;;;;;1.55;0.90;;;10.80;99.90;;;;;;5033588;28;20025;-37
2023/11/12 05:00:06;;;;;;;5.18;1.10;;;10.80;99.90;;;;;;5033479;28;20037;-37
2023/11/12 05:02:32;;;;;;;1.58;0.90;;;10.80;99.90;;;;;;5033496;28;20021;-39
2023/11/12 05:04:58;;;;;;;1.35;0.80;;;10.80;99.90;;;;;;5033609;28;20033;-37
2023/11/12 05:07:23;;;;;;;1.48;0.90;;;10.80;99.90;;;;;;5033498;28;20394;-38
2023/11/12 05:09:49;;;;;;;1.90;1.05;;;10.80;99.90;;;;;;5033476;28;20021;-37
2023/11/12 05:12:15;;;;;;;1.63;0.95;;;10.80;99.90;;;;;;5033292;28;20025;-37
2023/11/12 05:14:41;;;;;;;2.05;0.90;;;10.70;99.90;;;;;;5033345;28;20033;-38
2023/11/12 05:17:06;;;;;;;1.55;0.95;;;10.70;99.90;;;;;;5033030;28;20025;-38
2023/11/12 05:19:32;;;;;;;1.58;1.00;;;10.70;99.90;;;;;;5033209;28;20041;-37
2023/11/12 05:21:57;;;;;;;1.20;0.93;;;10.70;99.90;;;;;;5033177;28;20060;-39
2023/11/12 05:24:23;;;;;;;1.35;0.90;;;10.70;99.90;;;;;;5033121;28;20101;-37
2023/11/12 05:26:49;;;;;;;1.10;0.95;;;10.70;99.90;;;;;;5032968;28;20025;-38
2023/11/12 05:29:14;;;;;;;1.95;1.15;;;10.70;99.90;;;;;;5032984;28;20057;-39
2023/11/12 05:31:40;;;;;;;1.50;0.93;;;10.70;99.90;;;;;;5032816;28;20379;-38
2023/11/12 05:34:05;;;;;;;2.30;1.10;;;10.70;99.90;;;;;;5033008;28;20026;-38
2023/11/12 05:36:31;;;;;;;1.50;0.88;;;10.70;99.90;;;;;;5032763;28;20441;-36
2023/11/12 05:38:58;;;;;;;2.17;1.00;;;10.70;99.90;;;;;;5032940;28;20017;-38
2023/11/12 05:41:24;;;;;;;1.65;0.90;;;10.70;99.90;;;;;;5032856;28;20028;-37
2023/11/12 05:43:50;;;;;;;2.10;0.90;;;10.70;99.90;;;;;;5032821;28;20029;-38
2023/11/12 05:46:16;;;;;;;1.38;0.70;;;10.70;99.90;;;;;;5032563;28;20026;-37
2023/11/12 05:48:41;;;;;;;1.83;0.90;;;10.70;99.90;;;;;;5032599;28;20021;-38
2023/11/12 05:51:08;;;;;;;1.42;0.70;;;10.70;99.90;;;;;;5031723;28;20084;-37
2023/11/12 05:53:35;;;;;;;2.60;1.00;;;10.70;99.90;;;;;;5032961;28;20018;-38
2023/11/12 05:56:00;;;;;;;2.67;0.80;;;10.70;99.90;;;;;;5032417;28;20045;-37
2023/11/12 05:58:26;;;;;;;1.52;0.82;;;10.70;99.90;;;;;;5032465;28;20068;-38
2023/11/12 06:00:54;;;;;;;2.70;0.80;;;10.70;99.90;;;;;;5032146;28;20099;-38
2023/11/12 06:03:21;;;;;;;1.55;0.90;;;10.60;99.90;;;;;;5032391;28;20025;-38
2023/11/12 06:05:47;;;;;;;2.00;1.00;;;10.70;99.90;;;;;;5032251;28;20402;-38
2023/11/12 06:08:12;;;;;;;1.60;1.05;;;10.60;99.90;;;;;;5032246;28;20022;-37
2023/11/12 06:10:41;;;;;;;2.28;0.93;;;10.70;99.90;;;;;;5032509;28;20075;-38
2023/11/12 06:13:08;;;;;;;1.90;0.93;;;10.70;99.90;;;;;;5032279;28;20025;-37
2023/11/12 06:15:34;;;;;;;4.72;1.35;;;10.70;99.90;;;;;;5032025;28;20067;-37
2023/11/12 06:18:00;;;;;;;1.70;0.85;;;10.70;99.90;;;;;;5032050;28;20405;-38
2023/11/12 06:20:27;;;;;;;1.27;0.98;;;10.70;99.90;;;;;;5032281;28;20018;-38
2023/11/12 06:22:53;;;;;;;1.52;1.00;;;10.70;99.90;;;;;;5032371;28;20378;-37
2023/11/12 06:25:19;;;;;;;1.92;1.20;;;10.70;99.90;;;;;;5031958;28;20033;-37
2023/11/12 06:27:44;;;;;;;1.48;0.85;;;10.60;99.90;;;;;;5030761;28;20095;-39
2023/11/12 06:30:10;;;;;;;2.55;1.00;;;10.70;99.90;;;;;;5031710;28;20104;-39
2023/11/12 06:32:38;;;;;;;3.33;1.08;;;10.70;99.90;;;;;;5031830;28;20044;-37
2023/11/12 06:35:04;;;;;;;1.95;1.00;;;10.70;99.90;;;;;;5031705;28;20054;-38
2023/11/12 06:37:29;;;;;;;1.20;0.70;;;10.70;99.90;;;;;;5031893;28;20022;-37
2023/11/12 06:39:55;;;;;;;1.65;0.90;;;10.60;99.90;;;;;;5031782;28;20544;-37
2023/11/12 06:42:21;;;;;;;1.92;0.82;;;10.70;99.90;;;;;;5031745;28;20493;-37
2023/11/12 06:44:47;;;;;;;1.42;0.93;;;10.60;99.90;;;;;;5031567;28;20040;-37
2023/11/12 06:47:14;;;;;;;1.95;1.20;;;10.70;99.90;;;;;;5031708;28;20056;-38
2023/11/12 06:49:40;;;;;;;1.90;1.00;;;10.60;99.90;;;;;;5031610;28;20045;-37
2023/11/12 06:52:06;;;;;;;2.33;1.00;;;10.70;99.90;;;;;;5031601;28;20057;-37
2023/11/12 06:54:31;;;;;;;1.85;1.05;;;10.60;99.90;;;;;;5031592;28;20028;-38
2023/11/12 06:56:57;;;;;;;2.38;1.20;;;10.70;99.90;;;;;;5031311;28;20505;-39
2023/11/12 06:59:23;;;;;;;1.38;0.90;;;10.60;99.90;;;;;;5031243;28;20029;-37
2023/11/12 07:01:48;;;;;;;1.60;1.20;;;10.60;99.90;;;;;;5031661;28;20033;-37
2023/11/12 07:04:14;;;;;;;1.02;0.75;;;10.60;99.90;;;;;;5031360;28;20021;-38
2023/11/12 07:06:40;;;;;;;1.92;0.88;;;10.60;99.90;;;;;;5031259;28;20436;-37
2023/11/12 07:09:05;;;;;;;2.38;1.30;;;10.60;99.90;;;;;;5031284;28;20538;-37
2023/11/12 07:11:31;;;;;;;2.97;1.48;;;10.60;99.90;;;;;;5031253;28;20148;-38
2023/11/12 07:13:57;;;;;;;2.17;1.30;;;10.60;99.90;;;;;;5031351;28;20021;-38
2023/11/12 07:16:23;;;;;;;2.67;1.50;;;10.60;99.90;;;;;;5031264;28;20029;-38
2023/11/12 07:18:50;;;;;;;3.03;1.67;;;10.60;99.90;;;;;;5031201;28;20049;-37
2023/11/12 07:21:27;;;;;;;2.33;1.30;;;10.60;99.90;;;;;;5031242;28;20390;-38
2023/11/12 07:23:53;;;;;;;2.80;1.45;;;10.60;99.90;;;;;;5031366;28;20506;-38
2023/11/12 07:26:19;;;;;;;3.30;1.17;;;10.60;99.90;;;;;;5031052;28;20026;-39
2023/11/12 07:28:45;;;;;;;2.15;1.30;;;10.60;99.90;;;;;;5031214;28;20036;-39
2023/11/12 07:31:10;;;;;;;1.83;1.40;;;10.60;99.90;;;;;;5031195;28;20028;-37
2023/11/12 07:33:36;;;;;;;3.72;1.50;;;10.60;99.90;;;;;;5031265;28;20048;-39
2023/11/12 07:36:02;;;;;;;2.50;1.60;;;10.60;99.90;;;;;;5031046;28;20017;-38
2023/11/12 07:38:27;;;;;;;3.40;1.45;;;10.60;99.90;;;;;;5031071;28;20017;-37
2023/11/12 07:40:53;;;;;;;3.10;1.77;;;10.60;99.90;;;;;;5031421;28;20104;-38
2023/11/12 07:43:19;;;;;;;2.35;1.70;;;10.60;99.90;;;;;;5031278;28;20025;-38
2023/11/12 07:45:45;;;;;;;3.22;1.70;;;10.60;99.90;;;;;;5030964;28;20390;-38
2023/11/12 07:48:11;;;;;;;2.47;1.80;;;10.60;99.90;;;;;;5031268;28;20113;-38
2023/11/12 07:50:38;;;;;;;2.63;1.70;;;10.60;99.90;;;;;;5030889;28;20017;-37
2023/11/12 07:53:04;;;;;;;5.38;2.10;;;10.60;99.90;;;;;;5031429;28;20026;-38
2023/11/12 07:55:29;;;;;;;3.30;2.10;;;10.60;99.90;;;;;;5030778;28;20029;-38
2023/11/12 07:57:56;;;;;;;4.38;2.20;;;10.60;99.90;;;;;;5030919;28;20075;-38
2023/11/12 08:00:22;;;;;;;3.63;2.20;;;10.60;99.90;;;;;;5053982;22;20046;-40
2023/11/12 08:02:48;;;;;;;3.45;2.20;;;10.60;99.90;;;;;;5031892;28;20076;-42
2023/11/12 08:05:14;;;;;;;7.30;2.60;;;10.60;99.90;;;;;;5031222;28;20025;-40
2023/11/12 08:07:40;;;;;;;3.65;2.58;;;10.60;99.90;;;;;;5032818;28;20576;-42
2023/11/12 08:10:08;;;;;;;3.90;2.15;;;10.60;99.90;;;;;;5031817;28;20068;-40
2023/11/12 08:12:37;;;;;;;4.07;2.60;;;10.60;99.90;;;;;;5031098;28;20242;-40
2023/11/12 08:15:05;;;;;;;3.22;2.13;;;10.60;99.90;;;;;;5034007;28;20025;-40
2023/11/12 08:17:31;;;;;;;3.95;2.70;;;10.60;99.90;;;;;;5035444;28;20025;-41
2023/11/12 08:19:56;;;;;;;5.45;2.95;;;10.60;99.90;;;;;;5035272;28;20083;-41
2023/11/12 08:22:22;;;;;;;5.03;2.50;;;10.60;99.90;;;;;;5035946;28;20081;-40
2023/11/12 08:24:48;;;;;;;3.53;2.15;;;10.60;99.90;;;;;;5035863;28;20025;-40
2023/11/12 08:27:14;;;;;;;6.32;2.55;;;10.60;99.90;;;;;;5035456;28;20517;-40
2023/11/12 08:29:41;;;;;;;4.05;2.65;;;10.60;99.90;;;;;;5035692;28;20029;-40
2023/11/12 08:32:06;;;;;;;3.72;2.10;;;10.60;99.90;;;;;;5035062;28;20116;-40
2023/11/12 08:34:33;;;;;;;4.65;2.60;;;10.60;99.90;;;;;;5034816;28;20053;-40
2023/11/12 08:37:00;;;;;;;5.63;2.80;;;10.60;99.90;;;;;;5034581;28;20029;-40
2023/11/12 08:39:27;;;;;;;5.30;3.08;;;10.60;99.90;;;;;;5035093;28;20482;-40
2023/11/12 08:41:54;;;;;;;4.95;3.05;;;10.60;99.90;;;;;;5034720;28;20017;-41
2023/11/12 08:44:20;;;;;;;4.38;2.60;;;10.60;99.90;;;;;;5036072;28;20083;-41
2023/11/12 08:46:45;;;;;;;5.00;3.03;;;10.60;99.90;;;;;;5035381;28;20100;-41
2023/11/12 08:49:12;;;;;;;4.60;2.78;;;10.60;99.90;;;;;;5034701;28;20107;-40
2023/11/12 08:51:38;;;;;;;4.38;3.03;;;10.60;99.90;;;;;;5035423;28;20033;-40
2023/11/12 08:54:05;;;;;;;5.03;2.90;;;10.50;99.90;;;;;;5034901;28;20022;-40
2023/11/12 08:56:31;;;;;;;6.45;3.58;;;10.60;99.90;;;;;;5034781;28;20022;-40
2023/11/12 08:58:59;;;;;;;5.18;3.28;;;10.60;99.90;;;;;;5035302;28;20087;-40
2023/11/12 09:01:25;;;;;;;5.25;3.15;;;10.60;99.90;;;;;;5035174;28;20033;-40
2023/11/12 09:03:52;;;;;;;5.95;3.92;;;10.60;99.90;;;;;;5035524;28;20060;-40
2023/11/12 09:06:18;;;;;;;6.30;3.70;;;10.60;99.90;;;;;;5035124;28;20033;-40
2023/11/12 09:08:45;;;;;;;6.30;3.78;;;10.60;99.90;;;;;;5035390;28;20035;-43
2023/11/12 09:11:13;;;;;;;5.68;3.25;;;10.60;99.90;;;;;;5033855;28;20029;-40
2023/11/12 09:13:39;;;;;;;5.15;3.33;;;10.60;99.90;;;;;;5034816;28;20021;-41
2023/11/12 09:16:06;;;;;;;6.78;3.80;;;10.60;99.90;;;;;;5011457;28;20379;-41
2023/11/12 09:18:33;;;;;;;7.15;3.97;;;10.60;99.90;;;;;;5063361;28;20029;-40
2023/11/12 09:20:59;;;;;;;5.15;3.53;;;10.60;99.90;;;;;;5054432;28;20043;-40
2023/11/12 09:23:25;;;;;;;6.18;3.30;;;10.60;99.90;;;;;;5054208;28;20083;-40
2023/11/12 09:25:51;;;;;;;5.47;3.72;;;10.60;99.90;;;;;;5053310;28;20029;-40
2023/11/12 09:28:17;;;;;;;6.45;3.13;;;10.60;99.90;;;;;;5054186;28;20028;-40
2023/11/12 09:30:43;;;;;;;5.97;3.42;;;10.60;99.90;;;;;;5053486;28;20021;-40
2023/11/12 09:33:09;;;;;;;5.43;3.30;;;10.60;99.90;;;;;;5052207;28;20067;-40
2023/11/12 09:35:35;;;;;;;5.30;3.40;;;10.60;99.90;;;;;;5053345;28;20086;-40
2023/11/12 09:38:01;;;;;;;6.20;3.60;;;10.70;99.90;;;;;;5052177;28;20031;-40
2023/11/12 09:40:31;;;;;;;6.28;3.63;;;10.70;99.90;;;;;;5054850;28;20112;-40
2023/11/12 09:42:57;;;;;;;4.80;3.20;;;10.70;99.90;;;;;;5054090;28;20104;-40
2023/11/12 09:45:24;;;;;;;5.47;3.20;;;10.70;99.90;;;;;;5054014;28;20080;-40
2023/11/12 09:48:39;;;;;;;5.70;3.13;;;10.60;99.90;;;;;;5054281;28;20035;-40
2023/11/12 09:51:09;;;;;;;5.93;3.50;;;10.60;99.90;;;;;;5044789;28;20119;-40
2023/11/12 09:53:47;;;;;;;4.72;2.67;;;10.70;99.90;;;;;;5053075;28;20024;-40
2023/11/12 09:56:13;;;;;;;4.97;3.30;;;10.70;99.90;;;;;;5052600;28;20440;-40
2023/11/12 09:58:47;;;;;;;4.53;2.72;;;10.70;99.90;;;;;;5053564;28;20793;-39
2023/11/12 10:01:13;;;;;;;4.28;3.03;;;10.70;99.90;;;;;;5052912;28;20497;-40
2023/11/12 10:03:41;;;;;;;5.80;3.10;;;10.70;99.90;;;;;;5053388;28;20025;-40
2023/11/12 10:06:10;;;;;;;5.47;3.33;;;10.70;99.90;;;;;;5052286;28;20025;-40
2023/11/12 10:08:36;;;;;;;3.97;2.72;;;10.60;99.90;;;;;;5053638;28;20033;-42
2023/11/12 10:11:22;;;;;;;4.70;2.95;;;10.70;99.90;;;;;;5052942;28;20029;-40
2023/11/12 10:13:51;;;;;;;4.18;2.80;;;10.70;99.90;;;;;;5053228;28;20546;-40
2023/11/12 10:16:30;;;;;;;4.32;3.33;;;10.70;99.90;;;;;;5053938;28;20048;-40
2023/11/12 10:19:13;;;;;;;3.80;2.70;;;10.60;99.90;;;;;;5052851;28;20044;-43
2023/11/12 10:22:09;;;;;;;4.90;2.90;;;10.60;99.90;;;;;;5052858;28;20040;-40
2023/11/12 10:24:44;;;;;;;4.22;2.78;;;10.60;99.90;;;;;;5043236;28;20033;-40
2023/11/12 10:27:14;;;;;;;4.15;2.38;;;10.60;99.90;;;;;;5051791;28;20028;-40
2023/11/12 10:29:41;;;;;;;4.10;2.85;;;10.60;99.90;;;;;;5052978;28;20497;-40
2023/11/12 10:32:07;;;;;;;4.68;2.63;;;10.60;99.90;;;;;;5053312;28;20032;-40
2023/11/12 10:34:33;;;;;;;3.95;2.47;;;10.60;99.90;;;;;;5051938;28;20021;-40
2023/11/12 10:37:13;;;;;;;4.05;2.67;;;10.60;99.90;;;;;;5052088;28;20071;-40
2023/11/12 10:39:44;;;;;;;3.67;2.35;;;10.60;99.90;;;;;;5052059;28;20021;-40
2023/11/12 10:42:24;;;;;;;5.45;2.88;;;10.60;99.90;;;;;;5051682;28;20044;-41
2023/11/12 10:44:59;;;;;;;4.00;2.50;;;10.60;99.90;;;;;;5053211;28;20029;-42
2023/11/12 10:47:26;;;;;;;3.53;2.40;;;10.60;99.90;;;;;;5053119;28;20037;-40
2023/11/12 10:49:53;;;;;;;3.80;2.45;;;10.60;99.90;;;;;;5052569;28;20511;-41
2023/11/12 10:52:19;;;;;;;4.45;2.60;;;10.60;99.90;;;;;;5051408;28;20025;-40
2023/11/12 10:54:49;;;;;;;4.55;2.78;;;10.60;99.90;;;;;;5053685;28;20021;-41
2023/11/12 10:57:17;;;;;;;3.60;2.67;;;10.60;99.90;;;;;;5052229;28;20083;-40
2023/11/12 10:59:44;;;;;;;4.05;2.60;;;10.60;99.90;;;;;;5052216;28;20064;-40
2023/11/12 11:02:19;;;;;;;3.97;2.47;;;10.60;99.90;;;;;;5052740;28;20033;-40
2023/11/12 11:04:46;;;;;;;3.75;2.45;;;10.60;99.90;;;;;;5052786;28;20539;-40
2023/11/12 11:07:16;;;;;;;3.50;2.33;;;10.50;99.90;;;;;;5052791;28;20052;-40
2023/11/12 11:09:44;;;;;;;3.53;2.35;;;10.60;99.90;;;;;;5051219;28;20029;-40
2023/11/12 11:12:13;;;;;;;4.03;2.50;;;10.60;99.90;;;;;;5052232;28;20028;-40
2023/11/12 11:14:39;;;;;;;3.85;2.40;;;10.60;99.90;;;;;;5051833;28;20017;-41
2023/11/12 11:17:05;;;;;;;4.05;2.63;;;10.60;99.90;;;;;;5052052;28;20025;-40
2023/11/12 11:19:43;;;;;;;3.38;2.40;;;10.60;99.90;;;;;;5052284;28;20029;-40
2023/11/12 11:22:24;;;;;;;3.05;2.20;;;10.60;99.90;;;;;;5052298;28;20032;-40
2023/11/12 11:24:53;;;;;;;3.20;2.17;;;10.60;99.90;;;;;;5052463;28;20021;-40
2023/11/12 11:27:21;;;;;;;4.40;2.53;;;10.60;99.90;;;;;;5051198;28;20417;-40
2023/11/12 11:30:13;;;;;;;4.72;2.00;;;10.60;99.90;;;;;;5051927;28;20033;-42
2023/11/12 11:32:54;;;;;;;3.35;2.38;;;10.60;99.90;;;;;;5052492;28;20539;-40
2023/11/12 11:35:21;;;;;;;3.05;2.33;;;10.70;99.90;;;;;;5051217;28;20359;-41
2023/11/12 11:38:12;;;;;;;4.07;2.30;;;10.70;99.90;;;;;;5052295;28;20029;-41
2023/11/12 11:40:42;;;;;;;4.47;2.20;;;10.70;99.90;;;;;;5052063;28;20047;-40
2023/11/12 11:43:23;;;;;;;2.47;1.90;;;10.70;99.90;;;;;;5051399;28;20104;-39
2023/11/12 11:46:11;;;;;;;3.25;2.15;;;10.70;99.90;;;;;;5051194;28;20029;-40
2023/11/12 11:49:03;;;;;;;3.97;2.00;;;10.70;99.90;;;;;;5051636;28;20403;-40
2023/11/12 11:51:33;;;;;;;3.45;2.45;;;10.70;99.90;;;;;;5055788;28;20021;-40
2023/11/12 11:54:04;;;;;;;3.35;2.78;;;10.70;99.90;;;;;;5055819;28;20025;-40
2023/11/12 11:56:31;;;;;;;3.50;2.03;;;10.70;99.90;;;;;;5055352;28;20097;-41
2023/11/12 11:58:57;;;;;;;3.08;2.00;;;10.70;99.90;;;;;;5056621;28;20354;-41
2023/11/12 12:01:23;;;;;;;2.55;2.03;;;10.70;99.90;;;;;;5055593;28;20041;-41
2023/11/12 12:03:49;;;;;;;3.00;2.03;;;10.70;99.90;;;;;;5054861;28;20371;-41
2023/11/12 12:06:27;;;;;;;3.17;1.90;;;10.70;99.90;;;;;;5056937;28;20028;-41
2023/11/12 12:08:57;;;;;;;2.75;2.00;;;10.70;99.90;;;;;;5055272;28;20481;-42
2023/11/12 12:11:24;;;;;;;2.60;1.83;;;10.70;99.90;;;;;;5054843;28;20025;-41
2023/11/12 12:14:04;;;;;;;2.50;1.92;;;10.70;99.90;;;;;;5055902;28;20028;-41
2023/11/12 12:16:32;;;;;;;3.47;1.80;;;10.70;99.90;;;;;;5054793;28;20021;-41
2023/11/12 12:18:58;;;;;;;2.15;1.80;;;10.70;99.90;;;;;;5055091;28;20104;-41
2023/11/12 12:21:24;;;;;;;2.33;1.65;;;10.70;99.90;;;;;;5055988;28;20104;-41
2023/11/12 12:23:50;;;;;;;2.80;1.90;;;10.70;99.90;;;;;;5055856;28;20457;-41
2023/11/12 12:26:16;;;;;;;2.78;1.70;;;10.70;99.90;;;;;;5055546;28;20068;-40
2023/11/12 12:28:42;;;;;;;2.88;1.92;;;10.70;99.90;;;;;;5054215;28;20112;-41
2023/11/12 12:31:08;;;;;;;2.92;1.92;;;10.70;99.90;;;;;;5054464;28;20064;-41
2023/11/12 12:33:38;;;;;;;2.35;1.73;;;10.70;99.90;;;;;;5055518;28;20040;-41
2023/11/12 12:36:14;;;;;;;3.05;2.10;;;10.70;99.90;;;;;;5054249;28;20078;-44
2023/11/12 12:39:12;;;;;;;2.22;1.65;;;10.70;99.90;;;;;;5056811;28;20048;-41
2023/11/12 12:41:38;;;;;;;2.45;1.80;;;10.70;99.90;;;;;;5055000;28;20386;-41
2023/11/12 12:44:04;;;;;;;2.53;1.70;;;10.70;99.90;;;;;;5055373;28;20079;-41
2023/11/12 12:46:46;;;;;;;2.70;1.67;;;10.70;99.90;;;;;;5054826;28;20029;-41
2023/11/12 12:49:24;;;;;;;2.30;1.60;;;10.70;99.90;;;;;;5054896;28;20071;-41
2023/11/12 12:51:51;;;;;;;2.30;1.50;;;10.70;99.90;;;;;;5055133;28;20025;-41